Time;durP1;ratioP1;P1;durP2;ratioP2;P2;SDS_P1;SDS_P2;PMS_P1;PMS_P2;Temp;Humidity;BMP_temperature;BMP_pressure;BME280_temperature;BME280_humidity;BME280_pressure;Samples;Min_cycle;Max_cycle;Signal;HPM_P1;HPM_P2
2023/06/20 00:01:56;;;;;;;8.27;6.07;;;23.60;62.00;;;25.38;48.70;97199.06;5081737;28;20515;-47
2023/06/20 00:04:23;;;;;;;7.25;6.55;;;23.60;62.00;;;25.38;48.55;97213.53;5083722;28;20044;-50
2023/06/20 00:06:51;;;;;;;6.28;5.68;;;23.60;61.80;;;25.37;48.33;97216.50;5081857;28;20047;-47
2023/06/20 00:09:19;;;;;;;6.90;6.18;;;23.60;61.80;;;25.35;48.39;97233.94;5079247;28;20044;-46
2023/06/20 00:11:46;;;;;;;6.93;6.15;;;23.60;61.70;;;25.35;48.35;97238.56;5037498;28;20040;-49
2023/06/20 00:14:14;;;;;;;6.75;6.15;;;23.60;61.60;;;25.37;47.95;97241.03;5083506;28;20381;-45
2023/06/20 00:16:41;;;;;;;9.38;6.15;;;23.80;61.00;;;25.40;48.17;97243.22;5082997;28;20044;-49
2023/06/20 00:19:09;;;;;;;6.93;6.18;;;23.90;60.40;;;25.44;47.80;97253.31;5078495;28;20040;-45
2023/06/20 00:21:39;;;;;;;7.30;6.38;;;24.00;59.70;;;25.45;47.74;97262.31;5079459;28;20048;-46
2023/06/20 00:24:09;;;;;;;9.38;6.25;;;24.00;59.30;;;25.44;47.88;97264.22;5081737;28;20043;-49
2023/06/20 00:26:37;;;;;;;7.15;6.05;;;24.10;59.40;;;25.43;48.26;97275.38;5082705;28;20048;-47
2023/06/20 00:29:05;;;;;;;8.60;6.28;;;24.00;59.50;;;25.38;48.17;97284.34;5079684;28;20051;-46
2023/06/20 00:31:32;;;;;;;10.73;7.05;;;24.00;59.80;;;25.38;48.42;97297.13;5052860;28;20040;-49
2023/06/20 00:34:00;;;;;;;7.88;7.07;;;24.00;60.00;;;25.39;48.44;97307.78;5054790;28;20515;-46
2023/06/20 00:36:28;;;;;;;7.15;6.53;;;24.00;60.40;;;25.34;48.56;97340.47;5082663;28;20487;-45
2023/06/20 00:38:55;;;;;;;7.25;6.55;;;23.90;60.90;;;25.30;48.77;97383.75;5081178;28;20044;-47
2023/06/20 00:41:23;;;;;;;7.75;6.45;;;23.90;61.50;;;25.22;49.89;97407.91;5032862;28;20068;-49
2023/06/20 00:43:51;;;;;;;8.10;6.82;;;23.90;63.10;;;25.06;51.06;97426.03;5079874;28;20048;-47
2023/06/20 00:46:23;;;;;;;7.65;6.60;;;23.60;65.80;;;24.86;52.85;97429.41;5059528;28;20044;-45
2023/06/20 00:48:54;;;;;;;7.88;7.10;;;23.30;68.80;;;24.76;53.32;97447.28;5053117;28;20059;-46
2023/06/20 00:51:23;;;;;;;9.43;7.85;;;22.90;74.60;;;24.51;53.85;97438.88;5082768;28;20492;-45
2023/06/20 00:53:51;;;;;;;7.35;6.65;;;22.70;75.20;;;24.37;55.06;97443.84;5047899;28;20056;-47
2023/06/20 00:56:18;;;;;;;7.93;7.00;;;22.50;78.50;;;23.91;57.13;97454.16;5047206;28;20048;-47
2023/06/20 00:58:46;;;;;;;10.80;7.65;;;22.20;81.20;;;23.89;56.59;97462.56;5056697;28;20052;-45
2023/06/20 01:01:16;;;;;;;8.70;7.28;;;22.20;83.50;;;23.79;57.04;97457.00;5066151;28;20042;-46
2023/06/20 01:03:48;;;;;;;10.60;6.65;;;22.10;83.00;;;23.65;57.35;97445.63;5056932;28;20056;-46
2023/06/20 01:07:02;;;;;;;11.05;7.18;;;22.10;84.10;;;23.46;59.67;97441.53;5066019;28;20538;-45
2023/06/20 01:09:51;;;;;;;10.10;7.43;;;21.90;88.60;;;23.43;58.50;97428.47;5046415;28;20048;-49
2023/06/20 01:12:32;;;;;;;8.30;6.85;;;21.70;91.10;;;23.30;60.19;97438.59;5037308;28;20064;-46
2023/06/20 01:15:21;;;;;;;7.82;6.68;;;21.70;93.30;;;23.31;58.76;97440.25;5052573;28;20053;-47
2023/06/20 01:18:01;;;;;;;8.40;6.57;;;21.60;93.00;;;23.39;58.85;97434.38;5078541;28;20044;-49
2023/06/20 01:20:43;;;;;;;8.73;7.35;;;21.60;94.30;;;23.33;59.36;97424.50;5038528;28;20044;-50
2023/06/20 01:23:29;;;;;;;8.23;6.65;;;21.60;96.90;;;23.39;59.09;97433.56;5051115;28;20053;-47
2023/06/20 01:26:05;;;;;;;7.70;6.95;;;21.60;97.30;;;23.33;59.29;97429.94;5054560;28;20048;-46
2023/06/20 01:28:52;;;;;;;8.20;7.40;;;21.60;98.00;;;23.25;59.81;97415.97;5029984;28;20037;-47
2023/06/20 01:31:30;;;;;;;8.10;7.30;;;21.50;99.70;;;23.21;59.55;97407.50;5026869;28;20056;-48
2023/06/20 01:34:09;;;;;;;8.05;6.90;;;21.50;98.80;;;23.15;59.94;97403.88;5061181;28;20040;-47
2023/06/20 01:36:40;;;;;;;7.35;6.63;;;21.50;98.90;;;23.13;59.73;97395.16;5074092;28;20049;-47
2023/06/20 01:39:17;;;;;;;9.20;7.35;;;21.50;99.90;;;23.11;60.17;97382.88;5055344;28;20059;-46
2023/06/20 01:41:46;;;;;;;6.80;6.20;;;21.50;99.90;;;23.04;60.12;97388.50;5039153;28;20052;-46
2023/06/20 01:44:17;;;;;;;6.95;6.10;;;21.30;99.90;;;23.08;59.90;97380.69;5058652;28;20048;-46
2023/06/20 01:46:47;;;;;;;7.13;6.43;;;21.40;99.90;;;23.05;59.56;97390.16;5059863;28;20052;-49
2023/06/20 01:49:16;;;;;;;6.65;5.78;;;21.40;99.90;;;22.97;59.55;97380.50;5042355;28;20052;-50
2023/06/20 01:51:47;;;;;;;6.47;5.63;;;21.40;99.70;;;22.98;59.50;97384.03;5060698;28;20051;-49
2023/06/20 01:54:16;;;;;;;6.47;5.60;;;21.30;99.70;;;23.01;59.19;97375.38;5062889;28;20040;-49
2023/06/20 01:56:44;;;;;;;5.15;4.63;;;21.40;98.80;;;22.95;59.98;97373.66;5055209;28;20044;-48
2023/06/20 01:59:14;;;;;;;6.00;5.43;;;21.30;99.90;;;22.95;59.41;97366.38;5041107;28;20051;-49
2023/06/20 02:01:45;;;;;;;6.50;4.78;;;21.30;99.90;;;22.97;59.61;97368.81;5037297;28;20424;-47
2023/06/20 02:04:15;;;;;;;5.78;5.18;;;21.30;99.90;;;22.84;59.51;97366.41;5061996;28;20064;-47
2023/06/20 02:06:45;;;;;;;8.50;4.80;;;21.10;99.90;;;22.89;59.40;97355.66;5057133;28;20059;-51
2023/06/20 02:09:15;;;;;;;4.22;3.83;;;21.10;99.90;;;22.86;59.11;97356.97;5039035;28;20397;-50
2023/06/20 02:11:45;;;;;;;5.32;4.05;;;21.10;99.90;;;22.89;58.71;97350.22;5035521;28;20053;-47
2023/06/20 02:14:14;;;;;;;5.15;3.92;;;21.10;99.90;;;22.93;58.54;97343.22;5037347;28;20132;-48
2023/06/20 02:16:44;;;;;;;5.45;4.78;;;21.20;99.20;;;22.93;58.25;97330.47;5054902;28;20049;-46
2023/06/20 02:19:11;;;;;;;3.70;3.25;;;21.30;98.30;;;22.89;58.22;97329.31;5056223;28;20554;-46
2023/06/20 02:21:42;;;;;;;5.95;3.88;;;21.30;97.90;;;22.86;58.60;97332.56;5061109;28;20044;-48
2023/06/20 02:24:15;;;;;;;4.70;3.60;;;21.30;97.60;;;22.83;58.13;97341.19;5048445;28;20068;-46
2023/06/20 02:26:46;;;;;;;4.55;3.92;;;21.30;97.30;;;22.68;58.46;97330.94;5043932;28;20223;-48
2023/06/20 02:29:16;;;;;;;4.15;3.75;;;21.10;98.20;;;22.71;58.32;97345.88;5056814;28;20389;-46
2023/06/20 02:31:47;;;;;;;5.47;3.97;;;21.00;97.70;;;22.65;58.22;97338.72;5037019;28;20053;-46
2023/06/20 02:34:20;;;;;;;6.18;4.20;;;21.00;98.70;;;22.68;58.04;97333.63;5062546;28;20045;-45
2023/06/20 02:36:48;;;;;;;4.38;3.47;;;21.00;98.20;;;22.66;58.36;97333.03;5055297;28;20455;-46
2023/06/20 02:39:16;;;;;;;4.78;3.70;;;20.90;97.70;;;22.63;57.87;97324.59;5057084;28;20048;-45
2023/06/20 02:41:44;;;;;;;3.70;2.92;;;20.90;97.70;;;22.64;57.96;97331.66;5084655;28;20044;-45
2023/06/20 02:44:11;;;;;;;5.18;3.53;;;20.90;97.30;;;22.63;57.90;97330.84;5037189;28;20417;-45
2023/06/20 02:47:22;;;;;;;4.13;3.60;;;21.00;96.50;;;22.58;57.79;97333.44;5053826;28;20520;-46
2023/06/20 02:50:26;;;;;;;4.30;3.38;;;21.00;97.00;;;22.57;57.60;97327.22;5072053;28;20052;-48
2023/06/20 02:53:42;;;;;;;4.50;3.25;;;20.90;97.50;;;22.55;57.81;97326.63;5024036;28;20045;-47
2023/06/20 02:56:13;;;;;;;5.55;3.85;;;20.80;98.10;;;22.57;57.65;97329.94;5078646;28;20044;-46
2023/06/20 02:58:46;;;;;;;4.82;3.50;;;20.90;97.70;;;22.47;58.03;97342.47;5062122;28;20452;-50
2023/06/20 03:01:26;;;;;;;5.13;3.57;;;20.80;98.00;;;22.42;58.04;97351.34;5057121;28;20049;-47
2023/06/20 03:03:59;;;;;;;4.53;3.63;;;20.80;98.20;;;22.42;58.40;97352.16;5059132;28;20044;-46
2023/06/20 03:06:28;;;;;;;4.93;4.15;;;20.80;97.50;;;22.39;58.38;97351.84;5022082;28;20539;-47
2023/06/20 03:09:00;;;;;;;5.53;3.60;;;20.80;97.90;;;22.35;58.54;97346.09;5053921;28;20059;-47
2023/06/20 03:11:27;;;;;;;5.00;3.47;;;20.80;98.00;;;22.32;58.52;97348.47;5061430;28;20040;-46
2023/06/20 03:13:55;;;;;;;6.85;3.85;;;20.80;98.10;;;22.24;58.75;97344.25;5062326;28;20055;-47
2023/06/20 03:16:26;;;;;;;6.55;3.97;;;20.70;98.10;;;22.17;58.88;97341.66;5064221;28;20040;-47
2023/06/20 03:18:54;;;;;;;5.78;5.03;;;20.70;99.10;;;22.16;59.19;97347.34;5057867;28;20060;-48
2023/06/20 03:21:25;;;;;;;5.05;3.95;;;20.60;99.30;;;22.14;59.28;97344.03;5053607;28;20071;-48
2023/06/20 03:24:00;;;;;;;4.90;3.88;;;20.60;99.10;;;22.17;58.93;97351.69;5053359;28;20051;-46
2023/06/20 03:26:27;;;;;;;6.35;4.28;;;20.70;99.20;;;22.16;58.89;97345.44;5045219;28;20051;-46
2023/06/20 03:28:56;;;;;;;4.30;3.88;;;20.60;98.90;;;22.17;58.87;97341.66;5053196;28;20045;-47
2023/06/20 03:31:23;;;;;;;4.70;3.88;;;20.70;98.60;;;22.16;59.30;97337.31;5056502;28;20040;-50
2023/06/20 03:33:51;;;;;;;5.90;4.57;;;20.70;98.80;;;22.13;59.23;97331.56;5083634;28;20048;-45
2023/06/20 03:36:19;;;;;;;7.45;4.10;;;20.60;99.40;;;22.19;59.25;97330.56;5080956;28;20380;-49
2023/06/20 03:38:47;;;;;;;5.40;4.10;;;20.60;99.70;;;22.27;58.79;97335.63;5055713;28;20040;-45
2023/06/20 03:41:17;;;;;;;5.07;4.25;;;20.60;99.80;;;22.30;58.89;97337.88;5053293;28;20071;-46
2023/06/20 03:43:45;;;;;;;5.93;4.10;;;20.60;99.30;;;22.34;58.46;97340.91;5058270;28;20530;-47
2023/06/20 03:46:13;;;;;;;5.45;4.38;;;20.60;99.20;;;22.36;58.43;97334.16;5053231;28;20052;-46
2023/06/20 03:48:41;;;;;;;4.78;4.30;;;20.60;98.80;;;22.38;58.47;97331.22;5052723;28;20052;-46
2023/06/20 03:51:09;;;;;;;5.28;4.00;;;20.60;98.90;;;22.38;58.66;97333.94;5061715;28;20542;-45
2023/06/20 03:53:38;;;;;;;5.45;4.50;;;20.70;99.20;;;22.38;58.17;97337.47;5052034;28;20045;-49
2023/06/20 03:56:05;;;;;;;4.55;4.15;;;20.70;99.10;;;22.39;58.47;97335.56;5079590;28;20409;-46
2023/06/20 03:58:34;;;;;;;7.07;4.15;;;20.70;98.70;;;22.39;58.11;97331.00;5060281;28;20531;-47
2023/06/20 04:01:02;;;;;;;6.05;4.28;;;20.70;98.50;;;22.39;58.22;97324.72;5079446;28;20056;-47
2023/06/20 04:03:29;;;;;;;5.05;3.85;;;20.70;98.50;;;22.38;58.19;97323.91;5052756;28;20048;-45
2023/06/20 04:06:01;;;;;;;6.60;4.30;;;20.70;98.50;;;22.37;58.12;97321.44;5052994;28;20057;-45
2023/06/20 04:08:29;;;;;;;5.00;3.67;;;20.70;98.60;;;22.37;58.45;97334.97;5052259;28;20040;-46
2023/06/20 04:10:58;;;;;;;4.55;4.00;;;20.70;99.20;;;22.35;58.61;97329.00;5052830;28;20059;-47
2023/06/20 04:13:28;;;;;;;6.57;4.53;;;20.70;99.10;;;22.36;58.38;97334.16;5055695;28;20444;-45
2023/06/20 04:15:55;;;;;;;5.30;4.80;;;20.70;99.20;;;22.34;58.58;97338.22;5082938;28;20048;-45
2023/06/20 04:18:23;;;;;;;8.45;5.05;;;20.70;98.80;;;22.32;58.82;97332.22;5061641;28;20048;-44
2023/06/20 04:20:51;;;;;;;6.63;5.07;;;20.70;98.70;;;22.29;58.70;97325.38;5079370;28;20044;-45
2023/06/20 04:23:18;;;;;;;5.07;4.47;;;20.80;98.60;;;22.28;58.97;97331.88;5080609;28;20432;-46
2023/06/20 04:25:46;;;;;;;5.55;4.93;;;20.80;98.60;;;22.29;59.07;97325.38;5031357;28;20078;-47
2023/06/20 04:28:17;;;;;;;6.47;5.10;;;20.80;98.50;;;22.29;58.65;97329.97;5055704;28;20432;-45
2023/06/20 04:30:55;;;;;;;5.22;4.72;;;20.80;98.20;;;22.28;59.26;97333.75;5049801;28;20048;-46
2023/06/20 04:33:23;;;;;;;6.63;5.10;;;20.80;98.40;;;22.31;58.75;97335.97;5055797;28;20059;-45
2023/06/20 04:35:57;;;;;;;5.63;4.95;;;20.80;98.60;;;22.34;58.96;97328.16;5057681;28;20056;-46
2023/06/20 04:38:28;;;;;;;7.07;4.70;;;20.70;98.90;;;22.35;58.80;97332.53;5053993;28;20045;-48
2023/06/20 04:40:58;;;;;;;5.20;3.85;;;20.70;98.90;;;22.36;58.86;97336.06;5057641;28;20045;-46
2023/06/20 04:43:25;;;;;;;5.03;4.53;;;20.70;98.70;;;22.39;58.71;97336.41;5080548;28;20056;-46
2023/06/20 04:45:56;;;;;;;5.13;4.35;;;20.80;98.20;;;22.41;58.44;97334.28;5063309;28;20066;-47
2023/06/20 04:48:35;;;;;;;5.10;4.55;;;20.80;97.80;;;22.46;58.31;97346.28;5055778;28;20064;-49
2023/06/20 04:51:08;;;;;;;5.50;4.00;;;20.90;97.60;;;22.48;57.93;97342.25;5056314;28;20053;-47
2023/06/20 04:53:37;;;;;;;6.13;3.90;;;20.90;96.70;;;22.50;58.13;97342.81;5048930;28;20508;-46
2023/06/20 04:56:05;;;;;;;5.22;4.05;;;20.90;96.40;;;22.54;57.67;97341.25;5048435;28;20048;-48
2023/06/20 04:58:33;;;;;;;5.40;4.40;;;21.00;95.70;;;22.54;57.62;97354.00;5051500;28;20508;-46
2023/06/20 05:01:01;;;;;;;4.63;3.95;;;20.90;95.50;;;22.51;57.97;97352.63;5052343;28;20539;-52
2023/06/20 05:03:28;;;;;;;4.95;4.20;;;20.90;96.30;;;22.44;58.43;97359.25;5081167;28;20446;-46
2023/06/20 05:05:56;;;;;;;5.75;4.57;;;20.80;97.30;;;22.40;58.22;97367.88;5058715;28;20048;-46
2023/06/20 05:08:24;;;;;;;6.03;4.72;;;20.80;97.70;;;22.39;58.23;97365.41;5057291;28;20079;-46
2023/06/20 05:10:52;;;;;;;6.00;4.45;;;20.80;97.70;;;22.36;58.86;97364.00;5062395;28;20052;-46
2023/06/20 05:13:19;;;;;;;6.97;4.45;;;20.80;97.50;;;22.39;58.36;97355.41;5083552;28;20048;-48
2023/06/20 05:15:47;;;;;;;6.88;4.93;;;20.90;97.20;;;22.45;58.56;97361.72;5086247;28;20398;-47
2023/06/20 05:18:15;;;;;;;5.80;4.40;;;20.90;97.10;;;22.44;58.45;97362.78;5085250;28;20044;-47
2023/06/20 05:20:42;;;;;;;7.63;4.93;;;20.90;97.60;;;22.48;58.33;97365.84;5056345;28;20049;-48
2023/06/20 05:23:10;;;;;;;4.80;4.30;;;21.00;96.60;;;22.52;58.42;97373.22;5082239;28;20051;-47
2023/06/20 05:25:37;;;;;;;6.47;4.75;;;21.00;95.90;;;22.50;58.47;97372.66;5085724;28;20044;-48
2023/06/20 05:28:05;;;;;;;6.28;5.00;;;21.00;95.60;;;22.54;58.53;97378.41;5085399;28;20055;-44
2023/06/20 05:30:33;;;;;;;7.97;5.10;;;21.10;95.20;;;22.59;58.14;97373.91;5083031;28;20060;-45
2023/06/20 05:33:01;;;;;;;6.47;4.22;;;21.20;94.00;;;22.57;58.32;97378.75;5082142;28;20044;-48
2023/06/20 05:35:28;;;;;;;5.53;4.60;;;21.20;94.30;;;22.62;57.92;97380.72;5084220;28;20040;-44
2023/06/20 05:37:56;;;;;;;6.20;4.28;;;21.20;93.70;;;22.65;58.24;97374.00;5085057;28;20048;-46
2023/06/20 05:40:24;;;;;;;5.43;4.88;;;21.20;93.70;;;22.65;58.07;97368.56;5084027;28;20070;-49
2023/06/20 05:42:52;;;;;;;5.70;4.88;;;21.20;93.60;;;22.68;57.84;97379.75;5055299;28;20056;-48
2023/06/20 05:45:21;;;;;;;5.18;4.65;;;21.30;93.60;;;22.76;58.12;97371.22;5081963;28;20048;-46
2023/06/20 05:47:48;;;;;;;6.43;4.47;;;21.40;93.10;;;22.73;58.10;97379.00;5062935;28;20059;-46
2023/06/20 05:50:16;;;;;;;6.95;5.18;;;21.40;93.10;;;22.81;57.66;97382.13;5081856;28;20492;-46
2023/06/20 05:52:43;;;;;;;5.75;4.75;;;21.40;93.00;;;22.88;57.78;97379.28;5063069;28;20539;-46
2023/06/20 05:55:11;;;;;;;7.05;4.80;;;21.50;92.50;;;22.96;57.80;97378.03;5082026;28;20040;-45
2023/06/20 05:57:39;;;;;;;6.80;5.40;;;21.60;92.20;;;22.96;57.71;97386.19;5084422;28;20051;-49
2023/06/20 06:00:12;;;;;;;6.45;5.05;;;21.60;91.60;;;22.99;57.11;97381.09;5085609;28;20041;-47
2023/06/20 06:02:45;;;;;;;7.50;5.55;;;21.60;91.20;;;23.04;57.44;97377.66;5069193;28;20048;-46
2023/06/20 06:05:13;;;;;;;7.70;5.80;;;21.70;91.40;;;23.10;57.55;97379.38;5067253;28;20043;-47
2023/06/20 06:07:41;;;;;;;5.95;5.22;;;21.70;90.60;;;23.16;57.27;97383.78;5080979;28;20050;-50
2023/06/20 06:10:10;;;;;;;8.23;5.18;;;21.80;90.20;;;23.24;57.10;97387.97;5081859;28;20166;-48
2023/06/20 06:12:38;;;;;;;7.75;5.30;;;21.80;89.40;;;23.29;56.76;97385.34;5084555;28;20048;-50
2023/06/20 06:15:08;;;;;;;6.65;5.50;;;21.90;89.10;;;23.36;56.69;97391.44;5060586;28;20045;-48
2023/06/20 06:17:35;;;;;;;6.88;5.63;;;22.00;88.50;;;23.39;56.72;97387.41;5082382;28;20059;-49
2023/06/20 06:20:04;;;;;;;7.20;5.50;;;22.10;88.20;;;23.44;56.64;97392.91;5084671;28;20047;-46
2023/06/20 06:22:33;;;;;;;7.32;5.70;;;22.10;87.70;;;23.52;56.47;97391.66;5082617;28;20043;-48
2023/06/20 06:25:01;;;;;;;6.53;5.60;;;22.20;86.80;;;23.53;56.21;97390.56;5081458;28;20036;-47
2023/06/20 06:27:28;;;;;;;8.15;5.80;;;22.20;86.80;;;23.56;56.22;97395.50;5062051;28;20420;-49
2023/06/20 06:29:56;;;;;;;7.10;5.35;;;22.20;86.30;;;23.61;56.21;97397.47;5084475;28;20491;-48
2023/06/20 06:32:25;;;;;;;5.82;5.22;;;22.30;86.50;;;23.64;56.04;97397.78;5084063;28;20044;-48
2023/06/20 06:34:53;;;;;;;6.43;5.82;;;22.30;85.30;;;23.67;56.07;97401.88;5081155;28;20542;-47
2023/06/20 06:37:22;;;;;;;7.80;6.07;;;22.40;85.50;;;23.70;56.00;97396.78;5080949;28;20036;-48
2023/06/20 06:39:49;;;;;;;7.03;5.75;;;22.50;85.20;;;23.76;56.03;97398.47;5062649;28;20036;-49
2023/06/20 06:42:17;;;;;;;7.13;5.90;;;22.50;84.20;;;23.75;55.79;97394.13;5077749;28;20492;-51
2023/06/20 06:44:47;;;;;;;6.13;5.20;;;22.50;84.50;;;23.83;55.65;97392.09;5042550;28;20049;-47
2023/06/20 06:47:15;;;;;;;6.95;6.22;;;22.60;84.10;;;23.89;55.85;97391.06;5058813;28;20056;-49
2023/06/20 06:49:42;;;;;;;8.65;5.97;;;22.70;84.30;;;23.95;55.67;97398.22;5083566;28;20058;-51
2023/06/20 06:52:11;;;;;;;6.57;5.88;;;22.70;83.60;;;24.00;55.39;97401.00;5084952;28;20048;-49
2023/06/20 06:54:38;;;;;;;7.90;6.53;;;22.80;83.10;;;24.04;55.27;97393.97;5082580;28;20448;-48
2023/06/20 06:57:06;;;;;;;8.32;5.72;;;22.80;82.80;;;24.08;55.39;97395.13;5084023;28;20492;-48
2023/06/20 06:59:33;;;;;;;7.35;6.32;;;22.80;82.90;;;24.12;55.41;97398.97;5082015;28;20047;-51
2023/06/20 07:02:01;;;;;;;6.55;5.68;;;22.90;82.80;;;24.16;55.21;97394.66;5081097;28;20029;-47
2023/06/20 07:04:29;;;;;;;7.80;5.93;;;23.00;82.30;;;24.22;54.97;97395.53;5082016;28;20041;-48
2023/06/20 07:06:56;;;;;;;8.05;6.47;;;23.00;81.60;;;24.28;54.95;97396.41;5084311;28;20047;-47
2023/06/20 07:09:24;;;;;;;8.10;5.68;;;23.10;81.10;;;24.31;54.75;97396.72;5083784;28;20040;-51
2023/06/20 07:11:51;;;;;;;8.93;6.32;;;23.10;80.70;;;24.35;54.46;97386.16;5080416;28;20059;-49
2023/06/20 07:14:19;;;;;;;9.27;5.82;;;23.20;79.80;;;24.37;54.12;97397.59;5080260;28;20519;-48
2023/06/20 07:16:46;;;;;;;6.63;5.82;;;23.20;79.50;;;24.37;54.01;97395.69;5057564;28;20043;-49
2023/06/20 07:19:32;;;;;;;6.47;5.45;;;23.20;79.00;;;24.44;53.87;97391.94;5082073;28;20043;-50
2023/06/20 07:21:59;;;;;;;6.80;6.07;;;23.20;78.60;;;24.43;53.86;97398.47;5054412;28;20044;-52
2023/06/20 07:24:27;;;;;;;6.65;6.05;;;23.30;78.30;;;24.46;53.51;97393.31;5054037;28;20071;-49
2023/06/20 07:26:55;;;;;;;8.70;6.68;;;23.30;77.10;;;24.51;53.20;97390.69;5083130;28;20415;-48
2023/06/20 07:29:22;;;;;;;8.30;5.53;;;23.40;76.80;;;24.53;53.60;97385.81;5083092;28;20051;-48
2023/06/20 07:31:52;;;;;;;7.43;6.32;;;23.40;77.70;;;24.62;53.82;97379.91;5067718;28;20044;-49
2023/06/20 07:34:24;;;;;;;8.55;5.78;;;23.50;78.10;;;24.67;53.96;97379.97;5083674;28;20036;-49
2023/06/20 07:36:52;;;;;;;7.57;5.88;;;23.60;77.90;;;24.73;53.91;97387.91;5045879;28;20041;-47
2023/06/20 07:39:20;;;;;;;7.32;6.63;;;23.70;78.40;;;24.79;53.90;97396.13;5071489;28;20045;-47
2023/06/20 07:41:47;;;;;;;6.72;6.03;;;23.70;77.90;;;24.85;53.95;97395.09;5071321;28;20051;-47
2023/06/20 07:44:15;;;;;;;10.48;5.50;;;23.80;77.60;;;24.90;54.02;97392.41;5070212;28;20048;-46
2023/06/20 07:46:43;;;;;;;9.27;6.03;;;23.80;77.50;;;24.95;54.08;97385.09;5050182;28;20448;-46
2023/06/20 07:49:10;;;;;;;7.43;6.05;;;23.90;77.60;;;25.04;54.05;97387.34;5070512;28;20051;-49
2023/06/20 07:51:40;;;;;;;7.45;6.05;;;24.00;77.40;;;25.10;53.66;97378.94;5071062;28;20054;-48
2023/06/20 07:54:07;;;;;;;7.32;6.63;;;24.00;76.50;;;25.17;53.41;97384.19;5071039;28;20067;-45
2023/06/20 07:56:36;;;;;;;7.00;6.30;;;24.10;75.90;;;25.23;53.32;97387.78;5071304;28;20089;-47
2023/06/20 07:59:04;;;;;;;6.80;6.10;;;24.20;75.40;;;25.30;53.04;97382.91;5070684;28;20044;-46
2023/06/20 08:01:31;;;;;;;6.88;5.63;;;24.20;75.50;;;25.37;52.86;97386.22;5052713;28;20043;-48
2023/06/20 08:03:59;;;;;;;7.18;6.22;;;24.30;74.50;;;25.44;52.52;97380.56;5070415;28;20045;-45
2023/06/20 08:06:27;;;;;;;7.40;6.55;;;24.40;74.10;;;25.51;52.66;97379.25;5070733;28;20044;-48
2023/06/20 08:08:55;;;;;;;7.15;6.40;;;24.50;73.80;;;25.59;52.55;97382.53;5066480;28;20507;-46
2023/06/20 08:11:24;;;;;;;7.30;6.38;;;24.60;73.50;;;25.64;52.00;97386.13;5083308;28;20403;-47
2023/06/20 08:13:51;;;;;;;7.47;6.70;;;24.60;73.20;;;25.69;52.53;97380.69;5052797;28;20052;-46
2023/06/20 08:16:19;;;;;;;9.27;6.68;;;24.60;73.00;;;25.75;52.50;97378.81;5079225;28;20043;-50
2023/06/20 08:18:47;;;;;;;9.80;7.38;;;24.70;73.20;;;25.79;52.08;97374.47;5081657;28;20419;-46
2023/06/20 08:21:14;;;;;;;8.25;6.53;;;24.80;73.00;;;25.84;52.11;97377.22;5082650;28;20201;-46
2023/06/20 08:23:42;;;;;;;8.07;6.35;;;24.80;72.30;;;25.89;51.26;97384.59;5055836;28;20420;-48
2023/06/20 08:26:09;;;;;;;8.00;6.43;;;24.80;71.50;;;25.94;51.68;97379.22;5082460;28;20043;-46
2023/06/20 08:28:37;;;;;;;8.38;6.57;;;24.90;71.40;;;25.99;51.22;97381.13;5081131;28;20055;-48
2023/06/20 08:31:05;;;;;;;8.23;6.80;;;25.00;71.00;;;26.03;50.88;97384.97;5078584;28;20492;-47
2023/06/20 08:33:32;;;;;;;7.50;6.78;;;24.90;70.60;;;26.02;51.23;97381.41;5079078;28;20522;-51
2023/06/20 08:36:01;;;;;;;7.47;5.70;;;25.00;70.40;;;26.04;51.20;97381.97;5082531;28;20040;-47
2023/06/20 08:38:29;;;;;;;7.05;6.10;;;25.00;70.40;;;26.09;51.20;97375.69;5082246;28;20040;-49
2023/06/20 08:40:57;;;;;;;9.70;6.72;;;25.00;70.50;;;26.13;50.95;97374.06;5051414;28;20052;-47
2023/06/20 08:43:26;;;;;;;7.60;6.80;;;25.10;69.90;;;26.10;50.28;97374.63;5070400;28;20043;-47
2023/06/20 08:45:55;;;;;;;8.15;6.80;;;25.10;68.50;;;26.11;50.22;97370.78;5069513;28;20052;-46
2023/06/20 08:48:23;;;;;;;7.85;6.43;;;25.00;68.40;;;26.14;50.30;97370.28;5070084;28;20048;-50
2023/06/20 08:50:52;;;;;;;7.00;6.20;;;25.10;68.70;;;26.20;50.21;97362.91;5052692;28;20048;-47
2023/06/20 08:53:20;;;;;;;7.45;6.20;;;25.10;68.80;;;26.25;50.07;97371.09;5053199;28;20381;-47
2023/06/20 08:55:52;;;;;;;7.95;6.57;;;25.20;67.90;;;26.29;49.77;97361.31;5052816;28;20416;-46
2023/06/20 08:58:22;;;;;;;8.15;5.75;;;25.20;67.50;;;26.31;49.66;97356.41;5052644;28;20037;-45
2023/06/20 09:00:50;;;;;;;8.38;6.55;;;25.30;67.10;;;26.33;49.52;97360.50;5054071;28;20052;-45
2023/06/20 09:03:17;;;;;;;7.63;6.65;;;25.30;67.30;;;26.38;48.88;97356.13;5082568;28;20040;-47
2023/06/20 09:05:45;;;;;;;7.80;6.35;;;25.30;65.70;;;26.44;48.43;97360.50;5080656;28;20052;-46
2023/06/20 09:08:15;;;;;;;8.13;7.28;;;25.40;65.50;;;26.47;48.40;97352.59;5078483;28;20484;-46
2023/06/20 09:10:44;;;;;;;6.55;5.93;;;25.40;64.90;;;26.51;48.67;97358.34;5053807;28;20048;-46
2023/06/20 09:13:13;;;;;;;7.20;6.28;;;25.50;65.40;;;26.54;47.59;97349.63;5082141;28;20040;-49
2023/06/20 09:15:41;;;;;;;6.82;6.10;;;25.50;63.30;;;26.57;48.00;97346.31;5081123;28;20055;-49
2023/06/20 09:18:13;;;;;;;8.45;6.38;;;25.50;63.20;;;26.60;48.15;97345.00;5078764;28;20051;-45
2023/06/20 09:20:42;;;;;;;8.18;6.72;;;25.60;63.50;;;26.65;48.20;97336.81;5079418;28;20049;-46
2023/06/20 09:23:10;;;;;;;8.55;6.30;;;25.60;63.80;;;26.73;47.45;97344.44;5081672;28;20384;-48
2023/06/20 09:25:39;;;;;;;6.97;6.00;;;25.70;62.50;;;26.80;46.96;97341.47;5053844;28;20401;-47
2023/06/20 09:28:15;;;;;;;7.95;5.75;;;25.80;62.00;;;26.85;46.74;97333.25;5080645;28;20043;-46
2023/06/20 09:30:45;;;;;;;6.97;5.55;;;25.80;60.70;;;26.87;46.27;97331.06;5056263;28;20040;-47
2023/06/20 09:33:14;;;;;;;8.55;5.93;;;25.80;60.00;;;26.91;46.39;97332.19;5080894;28;20040;-50
2023/06/20 09:35:42;;;;;;;9.00;6.63;;;25.90;60.30;;;27.00;46.28;97332.44;5061832;28;20059;-47
2023/06/20 09:38:10;;;;;;;8.85;6.90;;;25.90;60.50;;;27.09;46.05;97328.88;5078373;28;20388;-45
2023/06/20 09:40:44;;;;;;;8.77;5.40;;;26.10;60.20;;;27.13;45.30;97328.31;5078590;28;20040;-48
2023/06/20 09:43:12;;;;;;;8.70;5.85;;;26.10;58.60;;;27.13;45.20;97328.31;5056106;28;20041;-46
2023/06/20 09:45:40;;;;;;;8.20;6.57;;;26.10;59.00;;;27.18;45.21;97320.09;5078063;28;20052;-46
2023/06/20 09:48:09;;;;;;;6.93;6.18;;;26.20;58.80;;;27.25;44.31;97320.66;5047400;28;20040;-41
2023/06/20 09:50:39;;;;;;;7.05;6.35;;;26.20;58.00;;;27.30;44.52;97317.94;5056390;28;20044;-41
2023/06/20 09:53:25;;;;;;;7.00;6.40;;;26.20;57.80;;;27.35;44.64;97323.38;5063221;28;20036;-41
2023/06/20 09:55:56;;;;;;;7.93;6.40;;;26.30;56.40;;;27.39;44.18;97310.78;5056752;28;20069;-41
2023/06/20 09:58:27;;;;;;;8.18;5.85;;;26.40;57.10;;;27.47;44.64;97312.13;5055747;28;20493;-42
2023/06/20 10:00:57;;;;;;;10.30;5.38;;;26.50;57.70;;;27.59;44.40;97315.38;5057814;28;20056;-42
2023/06/20 10:03:27;;;;;;;8.52;5.57;;;26.60;57.10;;;27.70;43.71;97313.41;5084357;28;20047;-44
2023/06/20 10:05:56;;;;;;;7.90;7.07;;;26.70;56.20;;;27.78;43.10;97312.84;5058788;28;20048;-41
2023/06/20 10:08:25;;;;;;;8.80;6.65;;;26.80;55.20;;;27.84;42.65;97311.72;5060532;28;20074;-42
2023/06/20 10:10:52;;;;;;;9.88;6.82;;;26.90;54.10;;;27.89;42.75;97314.44;5057842;28;20049;-42
2023/06/20 10:13:20;;;;;;;8.45;6.55;;;26.90;54.40;;;27.91;42.63;97313.34;5084675;28;20048;-42
2023/06/20 10:15:49;;;;;;;8.20;5.57;;;27.00;55.00;;;27.96;42.76;97310.59;5076606;28;20472;-41
2023/06/20 10:18:32;;;;;;;6.25;5.65;;;27.00;54.90;;;28.04;42.17;97316.28;5061141;28;20048;-41
2023/06/20 10:21:04;;;;;;;6.47;5.72;;;27.10;53.00;;;28.14;42.26;97318.13;5083025;28;20261;-42
2023/06/20 10:23:35;;;;;;;7.20;6.10;;;27.20;54.00;;;28.22;41.70;97317.53;5059716;28;20055;-41
2023/06/20 10:26:07;;;;;;;8.25;5.72;;;27.30;52.60;;;28.32;40.38;97310.38;5084228;28;20110;-41
2023/06/20 10:28:38;;;;;;;8.30;6.23;;;27.30;51.40;;;28.36;39.08;97308.69;5059977;28;20045;-41
2023/06/20 10:31:06;;;;;;;6.18;5.05;;;27.40;48.70;;;28.44;39.08;97308.06;5085369;28;20051;-41
2023/06/20 10:33:39;;;;;;;6.68;5.55;;;27.50;49.30;;;28.52;38.62;97306.69;5084608;28;20040;-41